Time;durP1;ratioP1;P1;durP2;ratioP2;P2;SDS_P1;SDS_P2;PMS_P1;PMS_P2;Temp;Humidity;BMP_temperature;BMP_pressure;BME280_temperature;BME280_humidity;BME280_pressure;Samples;Min_cycle;Max_cycle;Signal;HPM_P1;HPM_P2
2021/08/21 05:53:18;;;;;;;8.30;7.35;;;14.60;99.90;;;;;;6325126;22;20053;-89
2021/08/21 05:56:29;;;;;;;10.60;7.93;;;14.70;99.90;;;;;;6201403;23;20323;-90
2021/08/21 06:04:28;;;;;;;;;;;;;;;;;;;;;
2021/08/21 06:11:02;;;;;;;8.30;6.88;;;15.10;99.90;;;;;;5890228;24;20077;-92
2021/08/21 06:14:09;;;;;;;10.70;6.53;;;15.20;99.90;;;;;;5909755;24;20028;-91
2021/08/21 06:16:55;;;;;;;8.85;6.25;;;15.20;99.90;;;;;;5864091;24;20108;-89
2021/08/21 06:20:03;;;;;;;9.70;6.60;;;15.20;99.90;;;;;;5926549;23;20032;-92
2021/08/21 06:23:00;;;;;;;9.07;7.15;;;15.30;99.90;;;;;;6169191;22;20061;-90
2021/08/21 06:26:05;;;;;;;10.05;6.97;;;15.30;99.90;;;;;;6309237;22;20072;-91
2021/08/21 06:29:29;;;;;;;;;;;;;;;;;;;;;
2021/08/21 06:36:52;;;;;;;6.55;5.85;;;16.10;99.90;;;;;;6097631;23;20034;-93
2021/08/21 06:39:48;;;;;;;7.85;6.28;;;16.70;99.90;;;;;;6084337;23;20042;-89
2021/08/21 06:42:40;;;;;;;9.68;6.35;;;16.90;99.90;;;;;;6103405;23;20441;-90
2021/08/21 06:46:14;;;;;;;7.28;5.85;;;17.20;99.90;;;;;;6104218;23;20046;-93
2021/08/21 06:50:00;;;;;;;7.65;5.18;;;17.50;99.90;;;;;;6127077;23;20030;-92
2021/08/21 06:52:49;;;;;;;7.93;5.53;;;18.10;99.90;;;;;;6031873;23;20760;-91
2021/08/21 06:55:46;;;;;;;8.27;5.53;;;18.40;99.90;;;;;;6227643;23;20021;-89
2021/08/21 06:58:34;;;;;;;7.13;5.45;;;18.40;99.90;;;;;;6231839;23;20028;-88
2021/08/21 07:01:22;;;;;;;8.40;5.47;;;18.30;99.90;;;;;;6215925;23;20013;-91
2021/08/21 07:04:12;;;;;;;7.32;5.25;;;18.30;99.90;;;;;;6214448;23;20098;-91
2021/08/21 07:07:02;;;;;;;8.02;5.55;;;18.40;99.90;;;;;;6237396;22;20030;-92
2021/08/21 07:09:50;;;;;;;7.78;4.95;;;18.80;99.90;;;;;;6300488;22;20019;-90
2021/08/21 07:17:48;;;;;;;;;;;;;;;;;;;;;
2021/08/21 07:21:12;;;;;;;6.00;5.30;;;20.00;99.90;;;;;;6244612;22;20041;-91
2021/08/21 07:29:02;;;;;;;;;;;;;;;;;;;;;
2021/08/21 07:32:23;;;;;;;10.13;5.68;;;20.50;99.90;;;;;;6230804;22;20078;-92
2021/08/21 07:35:23;;;;;;;6.95;5.13;;;20.30;99.90;;;;;;6292140;22;20027;-90
2021/08/21 07:38:16;;;;;;;10.73;4.93;;;20.40;99.90;;;;;;6288910;22;20077;-92
2021/08/21 07:41:23;;;;;;;6.55;4.65;;;20.60;99.90;;;;;;6294230;22;20106;-91
2021/08/21 07:44:12;;;;;;;7.38;4.68;;;21.20;99.90;;;;;;6289499;22;20444;-91
2021/08/21 07:47:01;;;;;;;8.38;4.70;;;21.90;99.90;;;;;;6289997;22;20015;-91
2021/08/21 07:49:51;;;;;;;7.88;4.70;;;22.50;99.90;;;;;;6288491;22;20077;-91
2021/08/21 07:52:44;;;;;;;6.68;4.03;;;22.50;99.90;;;;;;6310416;22;20118;-92
2021/08/21 07:55:31;;;;;;;6.32;4.75;;;22.90;99.90;;;;;;6312931;22;20023;-91
2021/08/21 07:58:22;;;;;;;5.85;4.38;;;23.00;99.90;;;;;;6288744;22;20472;-92
2021/08/21 08:01:09;;;;;;;6.57;4.15;;;23.20;99.90;;;;;;6268556;22;20027;-92
2021/08/21 08:03:57;;;;;;;6.47;3.60;;;23.70;99.90;;;;;;6311817;22;20027;-93
2021/08/21 08:06:44;;;;;;;4.03;3.47;;;24.30;97.50;;;;;;6312447;22;20015;-90
2021/08/21 08:09:34;;;;;;;4.80;3.90;;;24.40;96.40;;;;;;6311406;22;20050;-91
2021/08/21 08:12:23;;;;;;;6.13;3.70;;;24.80;95.60;;;;;;6313828;22;20053;-91
2021/08/21 08:15:12;;;;;;;4.85;3.35;;;25.00;93.80;;;;;;6312114;22;20088;-91
2021/08/21 08:18:04;;;;;;;6.78;3.60;;;25.30;93.20;;;;;;6291279;22;20034;-90
2021/08/21 08:20:53;;;;;;;8.57;3.80;;;25.40;93.30;;;;;;6312570;22;20034;-90
2021/08/21 08:23:43;;;;;;;4.95;3.60;;;25.50;92.60;;;;;;6312286;22;20033;-91
2021/08/21 08:26:53;;;;;;;4.15;3.65;;;25.90;93.30;;;;;;6310689;22;20053;-92
2021/08/21 08:29:40;;;;;;;4.82;3.70;;;26.30;90.70;;;;;;6310945;22;20034;-92
2021/08/21 08:32:31;;;;;;;4.40;3.55;;;26.30;87.10;;;;;;6290072;22;20066;-93
2021/08/21 08:35:20;;;;;;;5.10;3.92;;;26.20;87.20;;;;;;6310533;22;20104;-91
2021/08/21 08:38:10;;;;;;;5.70;3.55;;;26.20;84.30;;;;;;6289792;22;20418;-90
2021/08/21 08:41:00;;;;;;;5.38;3.95;;;26.60;87.00;;;;;;6311690;22;20081;-91
2021/08/21 08:43:48;;;;;;;5.00;3.58;;;27.20;78.50;;;;;;6309292;22;20057;-91
2021/08/21 08:46:44;;;;;;;4.78;3.65;;;27.00;77.20;;;;;;6314016;22;20023;-93
2021/08/21 08:49:32;;;;;;;4.93;3.80;;;27.50;77.60;;;;;;6309697;22;20023;-90
2021/08/21 08:52:22;;;;;;;5.55;3.80;;;27.40;80.90;;;;;;6287612;22;20055;-92
2021/08/21 08:55:10;;;;;;;4.38;3.45;;;28.30;77.20;;;;;;6310703;22;20030;-92
2021/08/21 08:57:59;;;;;;;4.95;3.60;;;29.20;76.20;;;;;;6310654;22;20024;-90
2021/08/21 09:00:52;;;;;;;5.15;3.83;;;28.70;69.00;;;;;;6309367;22;20057;-92
2021/08/21 09:03:40;;;;;;;6.32;4.35;;;28.40;71.10;;;;;;6309885;22;20323;-91
2021/08/21 09:06:34;;;;;;;7.90;3.92;;;28.30;71.70;;;;;;6311815;22;20019;-95
2021/08/21 09:09:33;;;;;;;4.80;3.38;;;28.70;72.50;;;;;;6270299;22;20141;-92
2021/08/21 09:12:24;;;;;;;7.65;3.55;;;29.20;69.50;;;;;;6289685;22;20452;-90
2021/08/21 09:15:24;;;;;;;4.80;3.60;;;30.00;67.30;;;;;;6267649;22;20330;-91
2021/08/21 09:18:19;;;;;;;5.03;4.22;;;30.50;60.80;;;;;;6289501;22;20076;-89
2021/08/21 09:21:26;;;;;;;5.20;4.28;;;29.70;62.10;;;;;;6293023;22;20054;-92
2021/08/21 09:24:25;;;;;;;4.00;3.58;;;29.90;63.80;;;;;;6312013;22;20053;-92
2021/08/21 09:27:22;;;;;;;5.13;4.18;;;30.30;63.30;;;;;;6315616;22;20043;-91
2021/08/21 09:30:15;;;;;;;6.90;4.80;;;30.20;64.10;;;;;;6290156;22;20027;-92
2021/08/21 09:33:02;;;;;;;5.60;4.90;;;29.90;62.50;;;;;;6290839;22;20153;-94
2021/08/21 09:35:52;;;;;;;6.82;5.50;;;29.50;63.50;;;;;;6313291;22;20027;-93
2021/08/21 09:38:45;;;;;;;7.80;5.32;;;28.90;65.40;;;;;;6271080;22;20092;-93
2021/08/21 09:41:51;;;;;;;7.30;5.65;;;28.80;66.20;;;;;;6312807;22;20333;-93
2021/08/21 09:44:43;;;;;;;9.05;5.65;;;29.20;64.50;;;;;;6315409;22;20027;-95
2021/08/21 09:47:38;;;;;;;8.65;5.63;;;29.40;63.70;;;;;;6316655;22;20081;-94
2021/08/21 09:50:25;;;;;;;6.25;5.47;;;29.60;63.00;;;;;;6292890;22;20023;-94
2021/08/21 09:53:14;;;;;;;6.53;5.38;;;29.80;63.40;;;;;;6312874;22;20030;-91
2021/08/21 09:56:11;;;;;;;7.15;5.60;;;30.10;61.40;;;;;;6313295;22;20027;-94
2021/08/21 09:59:03;;;;;;;7.40;5.00;;;30.10;61.40;;;;;;6313207;22;20027;-93
2021/08/21 10:01:50;;;;;;;;;;;30.30;61.20;;;;;;6315704;22;20027;-93
2021/08/21 10:04:42;;;;;;;8.70;5.68;;;30.40;59.60;;;;;;6313906;22;19915;-89
2021/08/21 10:07:42;;;;;;;8.15;4.97;;;30.50;59.80;;;;;;6316695;22;20019;-93
2021/08/21 10:10:39;;;;;;;7.15;4.63;;;30.40;61.30;;;;;;6312342;22;20027;-93
2021/08/21 10:13:28;;;;;;;6.60;5.00;;;30.80;60.00;;;;;;6316923;22;20027;-94
2021/08/21 10:16:16;;;;;;;7.40;5.22;;;31.10;59.40;;;;;;6315000;22;20007;-91
2021/08/21 10:19:07;;;;;;;8.65;5.18;;;30.80;59.00;;;;;;6312091;22;20363;-89
2021/08/21 10:21:59;;;;;;;;;;;30.70;59.50;;;;;;6315361;22;20045;-92
2021/08/21 10:24:48;;;;;;;9.15;5.13;;;30.70;60.10;;;;;;6314873;22;20225;-93
2021/08/21 10:27:40;;;;;;;5.18;4.40;;;30.60;60.70;;;;;;6290717;22;20467;-92
2021/08/21 10:30:50;;;;;;;7.35;5.43;;;31.20;59.30;;;;;;6312867;22;20019;-92
2021/08/21 10:33:55;;;;;;;6.80;5.05;;;31.60;56.80;;;;;;6313996;22;20050;-92
2021/08/21 10:36:47;;;;;;;5.32;4.75;;;31.50;58.10;;;;;;6316527;22;20027;-91
2021/08/21 10:39:37;;;;;;;6.03;5.43;;;31.20;57.20;;;;;;6317775;22;20058;-93
2021/08/21 10:42:34;;;;;;;7.97;5.43;;;31.00;58.30;;;;;;6296334;22;20164;-92
2021/08/21 10:45:57;;;;;;;5.20;4.70;;;31.00;57.60;;;;;;6299847;22;20081;-92
2021/08/21 10:48:49;;;;;;;6.80;4.88;;;32.20;56.20;;;;;;6241112;22;20019;-92
2021/08/21 10:51:50;;;;;;;7.25;4.60;;;33.40;53.60;;;;;;6302146;22;20019;-93
2021/08/21 10:54:45;;;;;;;10.02;5.07;;;33.10;53.60;;;;;;6304036;22;20015;-91
2021/08/21 10:57:32;;;;;;;8.98;4.88;;;31.90;55.60;;;;;;6326512;22;20046;-92
2021/08/21 11:00:38;;;;;;;12.10;6.07;;;32.20;54.90;;;;;;6307873;22;20065;-91
2021/08/21 11:03:25;;;;;;;7.70;4.70;;;32.40;54.50;;;;;;6325949;22;20027;-92
2021/08/21 11:06:14;;;;;;;6.75;4.93;;;32.50;54.60;;;;;;6301957;22;20072;-92
2021/08/21 11:09:10;;;;;;;6.22;4.70;;;32.00;54.30;;;;;;6321615;22;20034;-91
2021/08/21 11:12:01;;;;;;;9.32;5.03;;;32.30;55.40;;;;;;6295388;22;20023;-91
2021/08/21 11:14:52;;;;;;;6.47;5.03;;;32.30;53.50;;;;;;6317776;22;20031;-91
2021/08/21 11:17:50;;;;;;;7.53;4.90;;;32.60;53.70;;;;;;6318244;22;20099;-95
2021/08/21 11:20:42;;;;;;;5.07;4.60;;;32.60;52.80;;;;;;6278719;22;20086;-91
2021/08/21 11:23:29;;;;;;;6.10;4.85;;;32.50;54.10;;;;;;6318358;22;20031;-93
2021/08/21 11:26:25;;;;;;;6.80;4.68;;;32.90;51.80;;;;;;6297832;22;20113;-92
2021/08/21 11:29:16;;;;;;;8.18;4.68;;;33.60;51.20;;;;;;6318001;22;20019;-91
2021/08/21 11:32:23;;;;;;;5.70;4.15;;;32.90;52.20;;;;;;6272959;22;20288;-92
2021/08/21 11:35:24;;;;;;;7.85;4.80;;;33.20;51.10;;;;;;6317095;22;20050;-91
2021/08/21 11:38:40;;;;;;;8.23;3.80;;;33.80;49.80;;;;;;6315377;22;20152;-91
2021/08/21 11:42:45;;;;;;;5.55;4.40;;;34.70;49.80;;;;;;6314367;22;20076;-91
2021/08/21 11:45:39;;;;;;;4.40;3.70;;;34.90;47.80;;;;;;6327406;22;20053;-91
2021/08/21 11:48:36;;;;;;;6.57;4.25;;;33.60;47.70;;;;;;6294863;22;20019;-91
2021/08/21 11:51:38;;;;;;;;;;;;;;;;;;;;;
2021/08/21 11:54:40;;;;;;;6.32;4.38;;;32.50;50.30;;;;;;6310592;22;20019;-92
2021/08/21 11:57:48;;;;;;;8.77;4.53;;;32.50;52.40;;;;;;6312818;22;20023;-92
2021/08/21 12:01:36;;;;;;;6.00;4.38;;;32.70;51.70;;;;;;6184662;23;20192;-93
2021/08/21 12:05:05;;;;;;;6.70;3.95;;;34.40;48.20;;;;;;6080114;23;20036;-91
2021/08/21 12:08:29;;;;;;;9.65;3.67;;;34.00;46.00;;;;;;6114902;23;20391;-91
2021/08/21 12:11:34;;;;;;;5.45;3.30;;;33.30;47.60;;;;;;6097803;23;20026;-93
2021/08/21 12:14:27;;;;;;;6.20;3.83;;;33.00;47.50;;;;;;6097498;23;20026;-90
2021/08/21 12:17:23;;;;;;;4.72;3.50;;;32.90;48.40;;;;;;6097983;23;20094;-91
2021/08/21 12:20:12;;;;;;;7.15;4.82;;;32.30;48.60;;;;;;6097829;23;20022;-87
2021/08/21 12:23:14;;;;;;;;;;;32.20;49.40;;;;;;6097915;23;20445;-91
2021/08/21 12:26:17;;;;;;;6.93;3.92;;;33.20;47.70;;;;;;6242671;22;19923;-93
2021/08/21 12:33:56;;;;;;;7.20;4.18;;;35.70;47.80;;;;;;5954266;24;20025;-91
2021/08/21 12:37:07;;;;;;;5.18;4.22;;;35.80;44.60;;;;;;5960326;23;20054;-91
2021/08/21 12:41:25;;;;;;;7.65;3.88;;;35.80;44.80;;;;;;5877594;24;20061;-92
2021/08/21 12:45:02;;;;;;;;;;;;;;;;;;;;;
2021/08/21 12:48:28;;;;;;;5.10;3.72;;;36.40;44.60;;;;;;6045782;23;20041;-92
2021/08/21 12:52:14;;;;;;;4.53;3.90;;;35.70;44.10;;;;;;6088489;23;20041;-92
2021/08/21 12:55:25;;;;;;;5.68;3.90;;;35.50;46.00;;;;;;6103775;23;20042;-92
2021/08/21 13:03:08;;;;;;;5.03;4.07;;;36.40;41.70;;;;;;6048759;23;20106;-92
2021/08/21 13:06:43;;;;;;;;;;;;;;;;;;;;;
2021/08/21 13:09:46;;;;;;;4.22;3.83;;;36.50;41.70;;;;;;6113187;23;20027;-90
2021/08/21 13:13:02;;;;;;;7.32;4.20;;;36.70;42.50;;;;;;6132812;23;20025;-94
2021/08/21 13:15:52;;;;;;;6.82;4.43;;;36.10;41.30;;;;;;6190096;23;20044;-91
2021/08/21 13:18:54;;;;;;;8.55;3.88;;;36.00;42.70;;;;;;6192593;23;20404;-91
2021/08/21 13:22:02;;;;;;;4.43;4.03;;;35.50;43.40;;;;;;6072360;23;20042;-92
2021/08/21 13:25:40;;;;;;;;;;;;;;;;;;;;;
2021/08/21 13:28:30;;;;;;;5.93;3.70;;;36.30;42.40;;;;;;6068434;23;20353;-93
2021/08/21 13:31:38;;;;;;;6.15;4.00;;;36.70;42.30;;;;;;6169865;23;20089;-92
2021/08/21 13:34:38;;;;;;;9.07;3.85;;;36.50;42.10;;;;;;6185075;23;20112;-94
2021/08/21 13:37:29;;;;;;;5.63;3.90;;;36.80;43.90;;;;;;6222622;22;20027;-93
2021/08/21 13:40:32;;;;;;;5.65;3.35;;;36.90;41.20;;;;;;6306489;22;20102;-92
2021/08/21 13:43:22;;;;;;;8.95;4.38;;;36.40;41.20;;;;;;6284612;22;20465;-92
2021/08/21 13:46:32;;;;;;;8.82;3.90;;;36.60;43.10;;;;;;6214803;23;20036;-91
2021/08/21 13:49:19;;;;;;;5.30;3.72;;;37.70;40.60;;;;;;6214348;23;20174;-91
2021/08/21 13:52:12;;;;;;;5.15;3.70;;;38.00;42.70;;;;;;6212885;23;20047;-91
2021/08/21 13:55:02;;;;;;;5.00;3.25;;;38.30;40.80;;;;;;6214256;23;20450;-90
2021/08/21 13:57:55;;;;;;;3.65;3.25;;;39.10;39.20;;;;;;6196139;23;20029;-91
2021/08/21 14:00:48;;;;;;;4.60;3.13;;;38.20;38.50;;;;;;6218418;23;20095;-89
2021/08/21 14:03:38;;;;;;;3.58;3.28;;;36.90;36.80;;;;;;6217810;23;20427;-90
2021/08/21 14:06:28;;;;;;;6.70;3.33;;;35.60;40.30;;;;;;6217408;23;20028;-92
2021/08/21 14:09:20;;;;;;;3.50;3.13;;;34.90;42.10;;;;;;6220944;23;20102;-89
2021/08/21 14:12:08;;;;;;;5.53;3.50;;;34.00;42.60;;;;;;6216584;23;20033;-89
2021/08/21 14:15:02;;;;;;;4.35;3.75;;;34.50;45.60;;;;;;6216874;23;20536;-90
2021/08/21 14:17:51;;;;;;;4.18;3.78;;;34.80;49.30;;;;;;6290130;22;20030;-91
2021/08/21 14:20:40;;;;;;;9.68;3.60;;;35.20;47.50;;;;;;6309071;22;20039;-90
2021/08/21 14:23:27;;;;;;;6.75;3.72;;;35.30;46.30;;;;;;6288898;22;20024;-90
2021/08/21 14:26:15;;;;;;;6.90;3.63;;;35.20;46.60;;;;;;6287607;22;20038;-89
2021/08/21 14:29:04;;;;;;;4.15;3.47;;;35.00;46.90;;;;;;6309869;22;20034;-91
2021/08/21 14:31:55;;;;;;;4.75;3.22;;;34.10;48.40;;;;;;6310762;22;20023;-90
2021/08/21 14:34:44;;;;;;;8.07;3.30;;;33.90;47.80;;;;;;6311742;22;20031;-89
2021/08/21 14:37:31;;;;;;;4.93;3.75;;;34.60;46.90;;;;;;6311489;22;20035;-90
2021/08/21 14:40:19;;;;;;;4.18;3.60;;;34.20;47.10;;;;;;6290036;22;20402;-91
2021/08/21 14:43:10;;;;;;;4.13;3.47;;;33.10;48.30;;;;;;6289485;22;20035;-90
2021/08/21 14:46:00;;;;;;;3.80;3.30;;;32.10;53.30;;;;;;6311145;22;20038;-91
2021/08/21 14:48:47;;;;;;;4.82;3.80;;;31.40;53.30;;;;;;6311805;22;20080;-93
2021/08/21 14:51:38;;;;;;;5.35;3.95;;;30.80;53.60;;;;;;6309790;22;20031;-91
2021/08/21 14:54:27;;;;;;;7.18;4.40;;;30.70;54.30;;;;;;6291626;22;20023;-92
2021/08/21 14:57:17;;;;;;;7.78;3.92;;;30.80;56.10;;;;;;6290187;22;20338;-90
2021/08/21 15:00:06;;;;;;;6.47;4.00;;;30.60;58.10;;;;;;6310496;22;20031;-89
2021/08/21 15:02:56;;;;;;;3.78;3.40;;;30.40;55.80;;;;;;6313396;22;20444;-90
2021/08/21 15:05:46;;;;;;;4.50;3.83;;;30.40;55.60;;;;;;6309474;22;20035;-90
2021/08/21 15:08:36;;;;;;;4.53;3.88;;;30.10;55.40;;;;;;6312661;22;20023;-89
2021/08/21 15:11:27;;;;;;;5.25;4.18;;;29.70;58.00;;;;;;6311340;22;20336;-91
2021/08/21 15:14:17;;;;;;;5.20;3.65;;;29.40;57.70;;;;;;6309285;22;20034;-91
2021/08/21 15:17:12;;;;;;;4.00;3.65;;;29.20;57.40;;;;;;6289601;22;20089;-91
2021/08/21 15:19:59;;;;;;;8.20;3.70;;;29.40;58.70;;;;;;6311065;22;20035;-89
2021/08/21 15:22:47;;;;;;;4.40;3.50;;;30.50;56.80;;;;;;6289767;22;20369;-92
2021/08/21 15:25:36;;;;;;;7.80;3.67;;;31.70;55.00;;;;;;6308952;22;20030;-91
2021/08/21 15:28:28;;;;;;;4.45;3.45;;;32.80;51.60;;;;;;6290670;22;20027;-93
2021/08/21 15:31:20;;;;;;;7.10;3.72;;;33.60;50.80;;;;;;6309942;22;20045;-92
2021/08/21 15:34:11;;;;;;;4.10;3.70;;;34.60;47.50;;;;;;6288616;22;20035;-94
2021/08/21 15:36:59;;;;;;;8.15;3.63;;;34.90;47.50;;;;;;6308525;22;20300;-92
2021/08/21 15:39:50;;;;;;;9.00;8.07;;;35.00;45.60;;;;;;6311696;22;20078;-90
2021/08/21 15:42:39;;;;;;;19.33;13.00;;;35.20;47.20;;;;;;6310930;22;20060;-90
2021/08/21 15:45:29;;;;;;;225.88;182.77;;;34.80;47.30;;;;;;6286947;22;20315;-90
2021/08/21 15:48:25;;;;;;;42.25;36.67;;;34.70;48.90;;;;;;6310207;22;20030;-92
2021/08/21 15:51:12;;;;;;;84.05;75.75;;;34.80;48.30;;;;;;6279226;22;20288;-91
2021/08/21 15:54:02;;;;;;;12.50;11.20;;;34.70;48.90;;;;;;6278178;22;20024;-91
2021/08/21 15:56:54;;;;;;;5.03;4.47;;;34.70;49.30;;;;;;6281472;22;20380;-92
2021/08/21 15:59:44;;;;;;;;;;;34.20;48.20;;;;;;6277824;22;20024;-91
2021/08/21 16:02:32;;;;;;;5.57;4.95;;;33.20;52.00;;;;;;6281805;22;19938;-91
2021/08/21 16:05:20;;;;;;;6.22;5.28;;;32.40;51.90;;;;;;6280355;22;20031;-91
2021/08/21 16:08:10;;;;;;;7.70;4.32;;;32.00;53.30;;;;;;6279791;22;20023;-93
2021/08/21 16:11:00;;;;;;;13.57;7.72;;;32.30;51.70;;;;;;6278528;22;20080;-90
2021/08/21 16:13:49;;;;;;;230.40;176.52;;;32.10;53.20;;;;;;6282298;22;20019;-92
2021/08/21 16:16:38;;;;;;;134.70;93.50;;;32.00;53.90;;;;;;6281624;22;20035;-91
2021/08/21 16:19:28;;;;;;;60.60;45.77;;;32.00;53.30;;;;;;6291336;22;20011;-91
2021/08/21 16:22:18;;;;;;;10.75;6.95;;;31.60;54.50;;;;;;6291721;22;20066;-89
2021/08/21 16:25:06;;;;;;;19.38;13.98;;;30.90;56.00;;;;;;6283104;22;20043;-90
2021/08/21 16:27:54;;;;;;;9.18;7.20;;;30.20;58.70;;;;;;6286230;22;20085;-89
2021/08/21 16:30:44;;;;;;;32.85;19.67;;;29.60;59.80;;;;;;6284987;22;20107;-90
2021/08/21 16:33:34;;;;;;;20.35;14.30;;;29.20;61.60;;;;;;6287402;22;20019;-91
2021/08/21 16:36:24;;;;;;;28.70;17.10;;;28.80;61.90;;;;;;6286792;22;20024;-91
2021/08/21 16:39:13;;;;;;;39.95;20.58;;;28.50;63.60;;;;;;6285867;22;20035;-90
2021/08/21 16:42:09;;;;;;;253.88;161.95;;;28.20;64.00;;;;;;6289233;22;20193;-91
2021/08/21 16:45:02;;;;;;;270.70;175.02;;;28.00;66.00;;;;;;6291286;22;20117;-89
2021/08/21 16:47:52;;;;;;;125.78;79.85;;;27.70;67.30;;;;;;6294804;22;20012;-90
2021/08/21 16:50:41;;;;;;;72.45;51.08;;;27.50;67.70;;;;;;6295136;22;20042;-87
2021/08/21 16:53:30;;;;;;;38.25;24.45;;;27.20;68.60;;;;;;6296489;22;20122;-90
2021/08/21 16:56:17;;;;;;;7.10;4.75;;;27.00;69.80;;;;;;6297342;22;20065;-88
2021/08/21 16:59:05;;;;;;;10.23;7.03;;;26.70;70.30;;;;;;6299603;22;20073;-90
2021/08/21 17:01:55;;;;;;;36.95;22.58;;;26.40;73.30;;;;;;6295175;22;20011;-91
2021/08/21 17:04:42;;;;;;;7.25;4.78;;;26.20;75.00;;;;;;6274589;22;20027;-91
2021/08/21 17:07:34;;;;;;;10.85;6.05;;;26.00;75.80;;;;;;6291820;22;20016;-91
2021/08/21 17:10:23;;;;;;;10.37;5.77;;;25.90;75.80;;;;;;6286834;22;20038;-90
2021/08/21 17:13:13;;;;;;;11.05;7.28;;;25.90;77.20;;;;;;6286546;22;20028;-89
2021/08/21 17:16:02;;;;;;;7.85;4.95;;;25.80;77.70;;;;;;6283861;22;20117;-91
2021/08/21 17:18:52;;;;;;;6.15;4.78;;;25.70;78.30;;;;;;6281010;22;20103;-92
2021/08/21 17:21:41;;;;;;;13.32;8.85;;;25.50;81.70;;;;;;6277302;22;20038;-89
2021/08/21 17:24:29;;;;;;;10.50;5.68;;;25.40;84.40;;;;;;6275840;22;20081;-92
2021/08/21 17:27:16;;;;;;;6.75;5.80;;;25.30;84.30;;;;;;6278377;22;20035;-94
2021/08/21 17:30:07;;;;;;;10.18;6.50;;;25.20;83.50;;;;;;6278907;22;20116;-89
2021/08/21 17:32:55;;;;;;;11.27;5.88;;;25.00;86.10;;;;;;6281895;22;20399;-89
2021/08/21 17:35:50;;;;;;;7.18;5.55;;;24.70;87.40;;;;;;6285143;22;20019;-93
2021/08/21 17:38:39;;;;;;;6.35;5.53;;;24.60;87.10;;;;;;6278445;22;20035;-91
2021/08/21 17:41:33;;;;;;;5.43;4.82;;;24.40;86.80;;;;;;6282473;22;20027;-91
2021/08/21 17:44:22;;;;;;;8.93;5.03;;;24.20;89.40;;;;;;6281339;22;20085;-92
2021/08/21 17:47:10;;;;;;;8.05;5.35;;;24.10;89.50;;;;;;6282746;22;20027;-91
2021/08/21 17:50:02;;;;;;;8.10;4.85;;;23.90;90.00;;;;;;6286576;22;20023;-91
2021/08/21 17:52:54;;;;;;;8.63;5.32;;;23.80;90.70;;;;;;6291156;22;20027;-92
2021/08/21 17:55:44;;;;;;;7.30;5.50;;;23.60;90.90;;;;;;6291765;22;20084;-89
2021/08/21 17:58:32;;;;;;;5.93;4.97;;;23.50;91.10;;;;;;6289351;22;20046;-89
2021/08/21 18:01:21;;;;;;;7.53;5.32;;;23.30;91.60;;;;;;6289326;22;20441;-90
2021/08/21 18:04:15;;;;;;;5.80;5.00;;;23.10;92.20;;;;;;6312743;22;20054;-91
2021/08/21 18:07:02;;;;;;;11.80;7.85;;;22.90;93.30;;;;;;6312106;22;20052;-90
2021/08/21 18:09:49;;;;;;;5.75;5.07;;;22.70;94.10;;;;;;6312722;22;20073;-91
2021/08/21 18:12:41;;;;;;;7.97;5.07;;;22.60;94.30;;;;;;6312006;22;20084;-93
2021/08/21 18:15:29;;;;;;;6.45;5.20;;;22.50;94.70;;;;;;6289210;22;20023;-90
2021/08/21 18:18:19;;;;;;;10.68;5.65;;;22.40;95.20;;;;;;6310757;22;20085;-91
2021/08/21 18:21:09;;;;;;;6.95;5.53;;;22.30;96.10;;;;;;6312179;22;20103;-92
2021/08/21 18:23:57;;;;;;;8.10;5.22;;;22.30;96.30;;;;;;6290714;22;20045;-91
2021/08/21 18:26:47;;;;;;;13.55;7.30;;;22.20;95.90;;;;;;6311938;22;20077;-90
2021/08/21 18:29:34;;;;;;;9.25;7.07;;;22.10;99.90;;;;;;6311645;22;20035;-91
2021/08/21 18:32:22;;;;;;;9.52;6.45;;;22.00;99.90;;;;;;6290975;22;20027;-90
2021/08/21 18:35:13;;;;;;;7.97;6.10;;;21.90;99.90;;;;;;6311284;22;20023;-90
2021/08/21 18:38:08;;;;;;;7.57;5.82;;;21.80;99.90;;;;;;6310904;22;20104;-91
2021/08/21 18:40:58;;;;;;;7.45;6.32;;;21.70;99.90;;;;;;6313529;22;20023;-92
2021/08/21 18:43:45;;;;;;;7.35;5.95;;;21.60;99.90;;;;;;6312042;22;20120;-90
2021/08/21 18:46:36;;;;;;;8.30;5.63;;;21.60;99.90;;;;;;6292233;22;20027;-90
2021/08/21 18:49:25;;;;;;;11.98;7.53;;;21.50;99.90;;;;;;6311146;22;20026;-91
2021/08/21 18:52:13;;;;;;;13.23;7.18;;;21.40;99.90;;;;;;6251327;23;20029;-92
2021/08/21 18:55:01;;;;;;;7.15;6.20;;;21.40;99.90;;;;;;6250397;23;20032;-91
2021/08/21 18:57:50;;;;;;;10.82;7.65;;;21.40;99.90;;;;;;6259108;23;20024;-90
2021/08/21 19:00:41;;;;;;;9.95;6.85;;;21.20;99.90;;;;;;6259449;23;20086;-89
2021/08/21 19:03:28;;;;;;;8.55;6.88;;;21.20;99.90;;;;;;6250765;23;20039;-91
2021/08/21 19:06:18;;;;;;;11.82;6.50;;;21.10;99.90;;;;;;6248530;23;20097;-90
2021/08/21 19:09:06;;;;;;;9.98;6.82;;;21.00;99.90;;;;;;6252286;23;20020;-90
2021/08/21 19:11:55;;;;;;;11.98;9.30;;;20.90;99.90;;;;;;6250362;23;20024;-90
2021/08/21 19:14:45;;;;;;;14.40;9.13;;;20.90;99.90;;;;;;6254478;22;20028;-90
2021/08/21 19:17:33;;;;;;;12.07;8.77;;;21.10;99.90;;;;;;6249243;23;20028;-91
2021/08/21 19:20:20;;;;;;;12.82;8.88;;;21.20;99.90;;;;;;6249427;23;20277;-90
2021/08/21 19:23:12;;;;;;;15.20;8.45;;;21.00;99.90;;;;;;6269788;22;20020;-93
2021/08/21 19:26:02;;;;;;;15.00;8.75;;;21.00;99.90;;;;;;6250672;23;20092;-92
2021/08/21 19:28:53;;;;;;;11.73;8.07;;;21.00;99.90;;;;;;6270469;22;20428;-92
2021/08/21 19:31:40;;;;;;;16.92;8.50;;;20.90;99.90;;;;;;6249544;23;20112;-90
2021/08/21 19:34:27;;;;;;;13.82;7.82;;;20.90;99.90;;;;;;6251487;22;20332;-91
2021/08/21 19:37:22;;;;;;;9.65;7.97;;;20.80;99.90;;;;;;6249316;23;20047;-92
2021/08/21 19:40:16;;;;;;;11.13;7.97;;;20.60;99.90;;;;;;6251765;22;20070;-91
2021/08/21 19:43:08;;;;;;;11.25;8.25;;;20.50;99.90;;;;;;6253486;22;20031;-91
2021/08/21 19:45:55;;;;;;;11.70;8.95;;;20.50;99.90;;;;;;6250766;23;20424;-92
2021/08/21 19:48:43;;;;;;;16.63;11.20;;;20.40;99.90;;;;;;6249637;23;20158;-90
2021/08/21 19:51:32;;;;;;;19.70;12.30;;;20.40;99.90;;;;;;6300837;22;20024;-93
2021/08/21 19:54:25;;;;;;;17.85;11.93;;;20.30;99.90;;;;;;6295109;22;20023;-91
2021/08/21 19:57:15;;;;;;;15.90;11.30;;;20.30;99.90;;;;;;6291418;22;20087;-89
2021/08/21 20:00:09;;;;;;;17.15;12.07;;;20.30;99.90;;;;;;6312749;22;20348;-91
2021/08/21 20:02:59;;;;;;;15.52;10.30;;;20.20;99.90;;;;;;6290502;22;20123;-91
2021/08/21 20:05:46;;;;;;;14.55;11.00;;;20.10;99.90;;;;;;6311811;22;20703;-91
2021/08/21 20:08:33;;;;;;;16.23;11.15;;;20.10;99.90;;;;;;6312132;22;20023;-91
2021/08/21 20:11:21;;;;;;;13.73;10.93;;;20.10;99.90;;;;;;6310511;22;20048;-90
2021/08/21 20:14:13;;;;;;;19.10;13.73;;;20.00;99.90;;;;;;6310356;22;20449;-92
2021/08/21 20:17:01;;;;;;;18.30;12.43;;;19.90;99.90;;;;;;6310180;22;20034;-94
2021/08/21 20:19:50;;;;;;;15.43;12.15;;;19.80;99.90;;;;;;6309212;22;20027;-93
2021/08/21 20:22:37;;;;;;;16.63;12.50;;;19.70;99.90;;;;;;6312159;22;20061;-92
2021/08/21 20:25:29;;;;;;;19.23;13.00;;;19.60;99.90;;;;;;6287125;22;20034;-91
2021/08/21 20:28:19;;;;;;;24.97;19.00;;;19.50;99.90;;;;;;6309827;22;20023;-90
2021/08/21 20:31:06;;;;;;;19.05;14.38;;;19.40;99.90;;;;;;6288396;22;20034;-91
2021/08/21 20:34:00;;;;;;;20.42;12.43;;;19.30;99.90;;;;;;6312096;22;20426;-89
2021/08/21 20:36:54;;;;;;;17.15;12.27;;;19.20;99.90;;;;;;6310129;22;20299;-90
2021/08/21 20:39:41;;;;;;;18.35;12.10;;;19.10;99.90;;;;;;6309067;22;20034;-93
2021/08/21 20:42:31;;;;;;;18.42;12.55;;;19.00;99.90;;;;;;6309907;22;20042;-92
2021/08/21 20:45:18;;;;;;;15.05;11.82;;;18.90;99.90;;;;;;6308600;22;20023;-91
2021/08/21 20:48:06;;;;;;;16.42;11.90;;;18.90;99.90;;;;;;6309374;22;20410;-91
2021/08/21 20:50:53;;;;;;;15.52;11.85;;;18.90;99.90;;;;;;6286536;22;20394;-92
2021/08/21 20:53:40;;;;;;;15.85;12.35;;;18.90;99.90;;;;;;6311116;22;20117;-91
2021/08/21 20:56:31;;;;;;;17.88;11.95;;;18.90;99.90;;;;;;6311688;22;20031;-90
2021/08/21 20:59:18;;;;;;;15.57;11.75;;;18.90;99.90;;;;;;6288476;22;20078;-91
2021/08/21 21:02:10;;;;;;;19.45;12.25;;;18.80;99.90;;;;;;6288739;22;20046;-91
2021/08/21 21:05:00;;;;;;;14.90;12.20;;;18.80;99.90;;;;;;6309274;22;20038;-92
2021/08/21 21:07:51;;;;;;;15.23;12.88;;;18.70;99.90;;;;;;6310882;22;20034;-94
2021/08/21 21:11:00;;;;;;;17.48;12.48;;;18.70;99.90;;;;;;6310474;22;20106;-91
2021/08/21 21:13:49;;;;;;;17.15;12.13;;;18.70;99.90;;;;;;6311418;22;20070;-93
2021/08/21 21:16:37;;;;;;;17.73;12.73;;;18.70;99.90;;;;;;6310225;22;20062;-90
2021/08/21 21:19:25;;;;;;;16.13;13.15;;;18.80;99.90;;;;;;6288436;22;20027;-91
2021/08/21 21:22:15;;;;;;;20.75;13.40;;;18.70;99.90;;;;;;6308882;22;20023;-91
2021/08/21 21:25:05;;;;;;;16.27;12.73;;;18.60;99.90;;;;;;6286407;22;20031;-91
2021/08/21 21:28:07;;;;;;;;;;;;;;;;;;;;;
2021/08/21 21:30:57;;;;;;;;;;;18.50;99.90;;;;;;6312816;22;20085;-91
2021/08/21 21:33:46;;;;;;;21.20;13.95;;;18.30;99.90;;;;;;6272422;22;19967;-91
2021/08/21 21:36:34;;;;;;;15.68;13.77;;;18.20;99.90;;;;;;6288375;22;20045;-90
2021/08/21 21:39:22;;;;;;;20.45;14.85;;;18.20;99.90;;;;;;6292026;22;20055;-91